If you wish to contribute or participate in the discussions about articles you are invited to join SKYbrary as a registered user

 Actions

Armilla Airport

From SKYbrary Wiki

LEGA
Airport
ICAO: LEGA
Summary
Name Armilla Airport
Region Europe
Territory Spain ES.gif
Location , Andalucia
Serving Granada
Elevation 700.126 m
2,297 ft
2,297 ft700.126 m
Type medium airport
Coordinates 37° 7' 59.60" N, 3° 38' 8.50" W
Runways
Designator Length Width Surface ROPS
18/36 1300 m4,265.092 ft
30 m98.425 ft
ASP /


METAR
Observation LEGA 221500Z 28004KT CAVOK 19/M04 Q1029
Station Granada / Armilla
Date/Time 22 February 2019 15:00:00
Wind direction 280°
Wind speed 04 kts
Lowest cloud amount clouds and visibility OK
Temperature 19°C
Dew point
Humidity 20%
QNH 1029 hPa
Weather condition n/a